TOURFACTS.DK  
Stats and Facts from Tour de France.

Tour de France 2018 starts in 315 days
  Riders   Stages   Teams   Summits   Yearly  


 
Search by year

 2017 - St. 21:  14824 starters.
  5131 different riders.
  634 teams.
  2232 stages.
  454 restdays.
  439589.60 km.
  5653 abandonnees.


Top 3
Christopher Froome86:20:55
Rigoberto Uran86:21:49
Romain Bardet86:23:15
Warren Barguil169 pt.
Primoz Roglic80 pt.
Thomas De Gendt64 pt.
Michael Matthews359 pt.
André Greipel234 pt.
Edvald Boasson Hagen220 pt.
Simon Yates86:27:09
Louis Meintjes86:29:15
Emanuel Buchmann86:54:16
Facts from Tour de France 2014
  |   Stages.  |   Stage winners.  |   Days in yellow  |   Average speed.  |   Route.  |   Teams.  |   All riders.  |   Rookies.  |   Withdrawls.  |  

  |   GC.  |   Polka  |   Green  |   White  |   Summits. (In tour)  |   Summits. (Points)  |   Miscellaneous.  |  

Stage 13 on 18 - 07 - 2014
         Owning:    Vincenzo Nibali      Vincenzo Nibali      Peter Sagan      Romain Bardet  

Pick a stage:  1 2 3 4 5 6 7 8 9 10 11 12 13 14 15 16 17 18 19 20 21
  Saint-ÉtienneChamrousse | Dist: 197.50 km.
Cat: 1Col de PalaquitITAAlessandro De Marchi
10 points
 
Cat: 1La Planche des Belles FillesITAGiovanni Visconti
2 points
 

Average speed for all riders in stage:  34,806 km./hr.
    Place:Name:Team:Time:Km/h:
ITAVincenzo NibaliKAZAstana Pro Team05:12:29  +  00:00:00=37,922 
POLRafal MajkaRUSTinkoff Saxo05:12:39  +  00:00:10=37,902 
CZELeopold KönigDEUTeam NetApp – Endura05:12:40  +  00:00:11=37,900 
4 ESPAlejandro ValverdeESPMovistar Team05:13:19  +  00:00:50=37,821 
5 FRAThibaut PinotFRAFDJ.fr05:13:22  +  00:00:53=37,815 
6 USATejay Van GarderenUSABMC Racing Team05:13:52  +  00:01:23=37,755 
7 FRARomain BardetFRAAg2r La Mondiale05:13:52  +  00:01:23=37,755 
8 NEDLaurens ten DamNLDBelkin Pro Cycling05:14:05  +  00:01:36=37,729 
9 FRAJean-Christophe PeraudFRAAg2r La Mondiale05:14:38  +  00:02:09=37,663 
10 LUXFränk SchleckUSATrek Factory Racing05:14:38  +  00:02:09=37,663 
11 ESPHaimar ZubeldiaUSATrek Factory Racing05:14:38  +  00:02:09=37,663 
12 BELJurgen Van Den BroeckBELLotto-Belisol Team05:14:38  +  00:02:09=37,663 
13 NEDBauke MollemaNLDBelkin Pro Cycling05:14:38  +  00:02:09=37,663 
14 FRAPierre RollandFRATeam Europcar05:15:30  +  00:03:01=37,559 
15 PORRui CostaITALampre-Merida05:15:30  +  00:03:01=37,559 
16 AUSMichael RogersRUSTinkoff Saxo05:15:36  +  00:03:07=37,548 
17 JPNChristopher HornerITALampre-Merida05:15:40  +  00:03:11=37,540 
18 LUXBen GastauerFRAAg2r La Mondiale05:16:31  +  00:04:02=37,439 
19 POLMichal KwiatkowskiBELOmega Pharma – Quick Step05:16:41  +  00:04:12=37,419 
20 FRABrice FeilluFRABretagne - Séché Environnement05:18:24  +  00:05:55=37,217 
21 RUSYury TrofimovRUSTeam Katusha05:18:24  +  00:05:55=37,217 
22 ESPLuis Angel MateFRACofidis – Solutions Crédits05:19:08  +  00:06:39=37,132 
23 FRAJohn GadretESPMovistar Team05:19:20  +  00:06:51=37,109 
24 USAPeter StetinaUSABMC Racing Team05:19:36  +  00:07:07=37,078 
25 WALGeraint ThomasGBRSky Procycling05:21:17  +  00:08:48=36,883 
26 ESPMikel NieveGBRSky Procycling05:21:17  +  00:08:48=36,883 
27 AUSRichie PorteGBRSky Procycling05:21:17  +  00:08:48=36,883 
28 NEDSteven KruijswijkNLDBelkin Pro Cycling05:21:17  +  00:08:48=36,883 
29 FRAMickaël CherelFRAAg2r La Mondiale05:21:17  +  00:08:48=36,883 
30 SUIMarcel WyssCHEIAM Cycling05:22:34  +  00:10:05=36,737 
31 URSTanel KangertKAZAstana Pro Team05:23:20  +  00:10:51=36,649 
32 FRAThomas VoecklerFRATeam Europcar05:23:37  +  00:11:08=36,617 
33 SVKPeter VelitsUSABMC Racing Team05:23:44  +  00:11:15=36,604 
34 FRASylvain ChavanelCHEIAM Cycling05:26:04  +  00:13:35=36,342 
35 USABenjamin KingUSAGarmin Sharp05:26:04  +  00:13:35=36,342 
36 AUSAdam HansenBELLotto-Belisol Team05:26:25  +  00:13:56=36,303 
37 FRAJérôme PineauCHEIAM Cycling05:26:39  +  00:14:10=36,277 
38 POLMichal GolasBELOmega Pharma – Quick Step05:28:11  +  00:15:42=36,108 
39 FRARudy MolardFRACofidis – Solutions Crédits05:30:17  +  00:17:48=35,878 
40 FRAAnthony DelaplaceFRABretagne - Séché Environnement05:30:17  +  00:17:48=35,878 
41 BELJan BakelantsBELOmega Pharma – Quick Step05:30:17  +  00:17:48=35,878 
42 ITAAlessandro De MarchiITACannondale Pro Cycling05:31:39  +  00:19:10=35,730 
43 FRANicolas RocheRUSTinkoff Saxo05:31:39  +  00:19:10=35,730 
44 JPNYukiya ArashiroFRATeam Europcar05:32:04  +  00:19:35=35,686 
45 CZEJan BártaDEUTeam NetApp – Endura05:32:52  +  00:20:23=35,600 
46 NEDBram TankinkNLDBelkin Pro Cycling05:32:52  +  00:20:23=35,600 
47 FRAAmaël MoinardUSABMC Racing Team05:32:52  +  00:20:23=35,600 
48 ESPJoaquim RodriguezRUSTeam Katusha05:32:52  +  00:20:23=35,600 
49 ESPJosé Joaquin RojasESPMovistar Team05:34:28  +  00:21:59=35,430 
50 ESPJon Izaguirre InsaustiESPMovistar Team05:34:28  +  00:21:59=35,430 
51 ESPMarkel IrizarUSATrek Factory Racing05:34:28  +  00:21:59=35,430 
52 SUIMichael SchärUSABMC Racing Team05:34:28  +  00:21:59=35,430 
53 FRAFlorian GuillouFRABretagne - Séché Environnement05:34:28  +  00:21:59=35,430 
54 USAMatthew BuscheUSATrek Factory Racing05:34:28  +  00:21:59=35,430 
55 BELGreg Van AvermaetUSABMC Racing Team05:34:28  +  00:21:59=35,430 
56 NEDLieuwe WestraKAZAstana Pro Team05:35:13  +  00:22:44=35,350 
57 FRAArnold JeannessonFRAFDJ.fr05:35:59  +  00:23:30=35,270 
58 FRAJérémy RoyFRAFDJ.fr05:35:59  +  00:23:30=35,270 
59 FRAPerrig QuemeneurFRATeam Europcar05:37:24  +  00:24:55=35,122 
60 GERPaul VossDEUTeam NetApp – Endura05:37:26  +  00:24:57=35,118 
61 NEDTom DumoulinNLDTeam Giant - Shimano05:37:26  +  00:24:57=35,118 
62 SUIJakob FuglsangKAZAstana Pro Team05:42:48  +  00:30:19=34,568 
63 NEDKoen De KortNLDTeam Giant - Shimano05:44:51  +  00:32:22=34,363 
64 NEDTom-Jelte SlagterUSAGarmin Sharp05:44:51  +  00:32:22=34,363 
65 PORJosé João PimentaDEUTeam NetApp – Endura05:44:51  +  00:32:22=34,363 
66 SUISébastien ReichenbachCHEIAM Cycling05:44:51  +  00:32:22=34,363 
67 ESPJesus HerradaESPMovistar Team05:44:51  +  00:32:22=34,363 
68 FRANicolas EdetFRACofidis – Solutions Crédits05:44:51  +  00:32:22=34,363 
69 DENLars BakBELLotto-Belisol Team05:44:51  +  00:32:22=34,363 
70 ESPRubén PlazaESPMovistar Team05:44:51  +  00:32:22=34,363 
71 ESPRafael Valls FerriITALampre-Merida05:44:51  +  00:32:22=34,363 
72 FRAAlexandre PichotFRATeam Europcar05:44:51  +  00:32:22=34,363 
73 ESPImanol ErvitiESPMovistar Team05:44:51  +  00:32:22=34,363 
74 FRACyril GautierFRATeam Europcar05:44:51  +  00:32:22=34,363 
75 PORTiago PintoDEUTeam NetApp – Endura05:44:51  +  00:32:22=34,363 
76 HRVKristijan DurasekITALampre-Merida05:44:51  +  00:32:22=34,363 
77 FRAMatthieu LadagnousFRAFDJ.fr05:44:51  +  00:32:22=34,363 
78 FRAJean-Marc BideauFRABretagne - Séché Environnement05:44:51  +  00:32:22=34,363 
79 AUSHeinrich HausslerCHEIAM Cycling05:44:51  +  00:32:22=34,363 
80 GERJens VoigtUSATrek Factory Racing05:44:51  +  00:32:22=34,363 
81 ITAMarco MarcatoITACannondale Pro Cycling05:44:51  +  00:32:22=34,363 
82 COLJosé SerpaITALampre-Merida05:44:51  +  00:32:22=34,363 
83 GERTony MartinBELOmega Pharma – Quick Step05:44:51  +  00:32:22=34,363 
84 BELMaarten WynantsNLDBelkin Pro Cycling05:44:51  +  00:32:22=34,363 
85 ITAMichele ScarponiKAZAstana Pro Team05:44:51  +  00:32:22=34,363 
86 URSRein TaaramäeFRACofidis – Solutions Crédits05:44:51  +  00:32:22=34,363 
87 DENMichael MørkøvRUSTinkoff Saxo05:44:51  +  00:32:22=34,363 
88 NEDTom LeezerNLDBelkin Pro Cycling05:44:51  +  00:32:22=34,363 
89 ITAMatteo TosattoRUSTinkoff Saxo05:44:51  +  00:32:22=34,363 
90 NEDLars BoomNLDBelkin Pro Cycling05:44:59  +  00:32:30=34,349 
91 KAZDmitriy GruzdevKAZAstana Pro Team05:45:38  +  00:33:09=34,285 
92 ITAAlessandro VanottiKAZAstana Pro Team05:45:38  +  00:33:09=34,285 
93 ITAGiovanni ViscontiESPMovistar Team05:46:00  +  00:33:31=34,249 
94 PORSergio PaulinhoRUSTinkoff Saxo05:46:25  +  00:33:56=34,207 
95 ITADaniele BennatiRUSTinkoff Saxo05:46:25  +  00:33:56=34,207 
96 POLBartosz HuzarskiDEUTeam NetApp – Endura05:46:25  +  00:33:56=34,207 
97 FRAArmindo FonsecaFRABretagne - Séché Environnement05:46:25  +  00:33:56=34,207 
98 FRABlel KadriFRAAg2r La Mondiale05:46:25  +  00:33:56=34,207 
99 FRACédric PineauFRAFDJ.fr05:46:40  +  00:34:11=34,183 
100 ESPDavid LopezGBRSky Procycling05:46:45  +  00:34:16=34,174 
101 NEDRoy CurversNLDTeam Giant - Shimano05:46:47  +  00:34:18=34,171 
102 NEDNiki TerpstraBELOmega Pharma – Quick Step05:47:07  +  00:34:38=34,138 
103 UKRAndriy GrivkoKAZAstana Pro Team05:49:21  +  00:36:52=33,920 
104 BELSep VanmarckeNLDBelkin Pro Cycling05:51:07  +  00:38:38=33,749 
105 BELJens KeukeleireAUSOrica - GreenEDGE05:51:07  +  00:38:38=33,749 
106 PORNelson OliveiraITALampre-Merida05:51:07  +  00:38:38=33,749 
107 ITAFabio SabatiniITACannondale Pro Cycling05:51:07  +  00:38:38=33,749 
108 ENGSimon YatesAUSOrica - GreenEDGE05:51:07  +  00:38:38=33,749 
109 FRARomain FeilluFRABretagne - Séché Environnement05:51:07  +  00:38:38=33,749 
110 SUIMartin ElmigerCHEIAM Cycling05:51:07  +  00:38:38=33,749 
111 SUIReto HollensteinCHEIAM Cycling05:51:07  +  00:38:38=33,749 
112 FRAArnaud GérardFRABretagne - Séché Environnement05:51:07  +  00:38:38=33,749 
113 CANChristian MeierAUSOrica - GreenEDGE05:51:07  +  00:38:38=33,749 
114 AUSSimon GerransAUSOrica - GreenEDGE05:51:07  +  00:38:38=33,749 
115 SVKPeter SaganITACannondale Pro Cycling05:51:07  +  00:38:38=33,749 
116 GERAndré GreipelBELLotto-Belisol Team05:51:07  +  00:38:38=33,749 
117 SLOKristjan KorenITACannondale Pro Cycling05:51:07  +  00:38:38=33,749 
118 ITAElia VivianiITACannondale Pro Cycling05:51:07  +  00:38:38=33,749 
119 SUIMichael AlbasiniAUSOrica - GreenEDGE05:51:07  +  00:38:38=33,749 
120 FRACyril LemoineFRACofidis – Solutions Crédits05:51:07  +  00:38:38=33,749 
121 FRABryan CoquardFRATeam Europcar05:51:07  +  00:38:38=33,749 
122 FRASébastien MinardFRAAg2r La Mondiale05:51:07  +  00:38:38=33,749 
123 AUSZakkari DempsterDEUTeam NetApp – Endura05:51:07  +  00:38:38=33,749 
124 SUIGregory RastUSATrek Factory Racing05:51:07  +  00:38:38=33,749 
125 FRAJulien SimonFRACofidis – Solutions Crédits05:51:07  +  00:38:38=33,749 
126 ITAMatteo MontagutiFRAAg2r La Mondiale05:51:07  +  00:38:38=33,749 
127 NZLJack BauerUSAGarmin Sharp05:51:07  +  00:38:38=33,749 
128 NORAlexander KristoffRUSTeam Katusha05:51:07  +  00:38:38=33,749 
129 FRATony GallopinBELLotto-Belisol Team05:51:07  +  00:38:38=33,749 
130 SLOSimon SpilakRUSTeam Katusha05:51:07  +  00:38:38=33,749 
131 ESPBeñat IntxaustiESPMovistar Team05:51:07  +  00:38:38=33,749 
132 GERAndreas SchillingerDEUTeam NetApp – Endura05:51:07  +  00:38:38=33,749 
133 FRAKévin RezaFRATeam Europcar05:51:07  +  00:38:38=33,749 
134 AUSLuke DurbridgeAUSOrica - GreenEDGE05:51:07  +  00:38:38=33,749 
135 CANSvein TuftAUSOrica - GreenEDGE05:51:07  +  00:38:38=33,749 
136 BLRVasil KiryienkaGBRSky Procycling05:51:07  +  00:38:38=33,749 
137 AUSSimon ClarkeAUSOrica - GreenEDGE05:51:07  +  00:38:38=33,749 
138 USAAlex HowesUSAGarmin Sharp05:51:07  +  00:38:38=33,749 
139 BELJürgen RoelandtsBELLotto-Belisol Team05:51:07  +  00:38:38=33,749 
140 FRAArnaud DémareFRAFDJ.fr05:51:07  +  00:38:38=33,749 
141 FRAMickael DelageFRAFDJ.fr05:51:07  +  00:38:38=33,749 
142 USADanny PateGBRSky Procycling05:51:07  +  00:38:38=33,749 
143 FRAAdrien PetitFRACofidis – Solutions Crédits05:51:07  +  00:38:38=33,749 
144 FRASamuel DumoulinFRAAg2r La Mondiale05:51:07  +  00:38:38=33,749 
145 FRAChristophe RiblonFRAAg2r La Mondiale05:51:07  +  00:38:38=33,749 
146 KAZMaxim IglinskiyKAZAstana Pro Team05:51:07  +  00:38:38=33,749 
147 NEDSebastian LangeveldUSAGarmin Sharp05:51:07  +  00:38:38=33,749 
148 URSGatis SmukulisRUSTeam Katusha05:51:07  +  00:38:38=33,749 
149 ITALuca PaoliniRUSTeam Katusha05:51:07  +  00:38:38=33,749 
150 ITADaniel OssUSABMC Racing Team05:51:17  +  00:38:48=33,733 
151 POLMaciej BodnarITACannondale Pro Cycling05:51:17  +  00:38:48=33,733 
152 FRAJean-Marc MarinoITACannondale Pro Cycling05:51:32  +  00:39:03=33,709 
153 FRAFlorian VachonFRABretagne - Séché Environnement05:51:35  +  00:39:06=33,705 
154 GERMarcel SiebergBELLotto-Belisol Team05:51:35  +  00:39:06=33,705 
155 ITAAlessandro PetacchiBELOmega Pharma – Quick Step05:51:44  +  00:39:15=33,690 
156 AUSMark RenshawBELOmega Pharma – Quick Step05:51:44  +  00:39:15=33,690 
157 FRABenoît JarrierFRABretagne - Séché Environnement05:51:44  +  00:39:15=33,690 
158 FRAYohann GèneFRATeam Europcar05:51:44  +  00:39:15=33,690 
159 URSRamunas NavardauskasUSAGarmin Sharp05:51:50  +  00:39:21=33,681 
160 BELJohan VansummerenUSAGarmin Sharp05:52:06  +  00:39:37=33,655 
161 GERMarcus BurghardtUSABMC Racing Team05:52:14  +  00:39:45=33,642 
162 CHNCheng JiNLDTeam Giant - Shimano05:52:39  +  00:40:10=33,603 
163 AUTBernhard EiselGBRSky Procycling05:52:39  +  00:40:10=33,603 
164 RUSVladimir IsaichevRUSTeam Katusha05:52:39  +  00:40:10=33,603 
165 GERJohn DegenkolbNLDTeam Giant - Shimano05:52:39  +  00:40:10=33,603 
166 FRAWilliam BonnetFRAFDJ.fr05:52:39  +  00:40:10=33,603 
167 ITADavide CimolaiITALampre-Merida05:53:11  +  00:40:42=33,552 
168 ITAMatteo TrentinBELOmega Pharma – Quick Step05:53:11  +  00:40:42=33,552 
169 NEDAlbert TimmerNLDTeam Giant - Shimano05:54:15  +  00:41:46=33,451 
170 NEDTom VeelersNLDTeam Giant - Shimano05:54:15  +  00:41:46=33,451 
171 GERMarcel KittelNLDTeam Giant - Shimano05:54:15  +  00:41:46=33,451 
172 BELDries DevenynsNLDTeam Giant - Shimano05:54:15  +  00:41:46=33,451 
173 GERRoger KlugeCHEIAM Cycling05:54:15  +  00:41:46=33,451 

Withdrawls: 4
 
Rider
Team
Reason
25  RUSAlexander PorsevRUSTeam KatushaExceeded time limit
92  COLJanier AcevedoUSAGarmin SharpDid not finish
129  FRAArthur VichotFRAFDJ.frDid not finish
171  ESPDaniel NavarroFRACofidis – Solutions CréditsDid not finish

Todays birthdays.

1888  Alfred Vaidis
1940  Sandro Cervellini
1940  Romano Piancastelli
1942  Eraldo Bocci
1947  Roger De Vlaeminck
1968  Antonio Dias
1969  Jans Koerts
1972  Francesco Secchiari
1988  Romain Hardy